Time;durP1;ratioP1;P1;durP2;ratioP2;P2;SDS_P1;SDS_P2;PMS_P1;PMS_P2;Temp;Humidity;BMP_temperature;BMP_pressure;BME280_temperature;BME280_humidity;BME280_pressure;Samples;Min_cycle;Max_cycle;Signal;HPM_P1;HPM_P2
2021/06/25 00:00:01;;;;;;;16.88;15.38;;;12.80;99.90;;;;;;5024332;28;20053;-45
2021/06/25 00:02:30;;;;;;;16.52;15.02;;;12.80;99.90;;;;;;5021653;28;20892;-46
2021/06/25 00:05:08;;;;;;;17.40;15.55;;;12.70;99.90;;;;;;5021844;28;20076;-49
2021/06/25 00:07:38;;;;;;;17.52;15.70;;;12.60;99.90;;;;;;5030098;28;20072;-45
2021/06/25 00:10:08;;;;;;;15.50;14.00;;;12.60;99.90;;;;;;5026293;28;20046;-46
2021/06/25 00:12:34;;;;;;;17.48;15.77;;;12.60;99.90;;;;;;5011895;28;20136;-47
2021/06/25 00:15:05;;;;;;;15.45;13.88;;;12.60;99.90;;;;;;5008586;28;20072;-47
2021/06/25 00:17:31;;;;;;;15.57;13.98;;;12.50;99.90;;;;;;5026082;28;20046;-44
2021/06/25 00:20:05;;;;;;;14.98;13.52;;;12.50;99.90;;;;;;5026285;28;20123;-45
2021/06/25 00:22:34;;;;;;;17.27;15.68;;;12.50;99.90;;;;;;5031239;28;20045;-45
2021/06/25 00:25:03;;;;;;;17.50;15.80;;;12.40;99.90;;;;;;5021456;28;20050;-47
2021/06/25 00:27:33;;;;;;;13.63;12.25;;;12.30;99.90;;;;;;5018120;28;20053;-45
2021/06/25 00:30:06;;;;;;;15.75;14.13;;;12.30;99.90;;;;;;5013123;28;20061;-46
2021/06/25 00:32:37;;;;;;;15.43;13.95;;;12.20;99.90;;;;;;5007387;28;20046;-46
2021/06/25 00:35:04;;;;;;;15.35;12.75;;;12.20;99.90;;;;;;5023196;28;20041;-47
2021/06/25 00:37:36;;;;;;;15.82;13.57;;;12.10;99.90;;;;;;5018376;28;20060;-45
2021/06/25 00:40:04;;;;;;;15.88;14.43;;;12.10;99.90;;;;;;5007193;28;20077;-45
2021/06/25 00:42:36;;;;;;;15.13;13.70;;;12.00;99.90;;;;;;5009187;28;20050;-45
2021/06/25 00:45:11;;;;;;;15.93;14.45;;;11.90;99.90;;;;;;5012286;28;20191;-46
2021/06/25 00:47:39;;;;;;;17.70;16.10;;;11.90;99.90;;;;;;5024556;28;20553;-46
2021/06/25 00:50:06;;;;;;;16.45;14.85;;;11.90;99.90;;;;;;5030261;28;20064;-46
2021/06/25 00:52:36;;;;;;;16.02;14.43;;;11.80;99.90;;;;;;5025585;28;20046;-46
2021/06/25 00:55:08;;;;;;;16.38;14.70;;;11.80;99.90;;;;;;5026562;28;20057;-47
2021/06/25 00:57:36;;;;;;;;;;;11.70;99.90;;;;;;5022493;28;20398;-46
2021/06/25 01:00:06;;;;;;;16.38;14.75;;;11.70;99.90;;;;;;5023493;28;19925;-45
2021/06/25 01:02:35;;;;;;;14.32;13.02;;;11.70;99.90;;;;;;5011311;28;20073;-46
2021/06/25 01:05:03;;;;;;;16.35;14.63;;;11.60;99.90;;;;;;5006530;28;20072;-47
2021/06/25 01:07:32;;;;;;;16.00;14.43;;;11.60;99.90;;;;;;5006673;28;20578;-46
2021/06/25 01:10:07;;;;;;;14.70;13.20;;;11.60;99.90;;;;;;5007862;28;20042;-45
2021/06/25 01:12:40;;;;;;;16.67;14.88;;;11.60;99.90;;;;;;5024544;28;20361;-48
2021/06/25 01:15:07;;;;;;;15.45;13.90;;;11.50;99.90;;;;;;5024140;28;20072;-45
2021/06/25 01:17:39;;;;;;;16.58;14.93;;;11.50;99.90;;;;;;5025277;28;20069;-45
2021/06/25 01:20:27;;;;;;;15.02;13.63;;;11.50;99.90;;;;;;5026044;28;20087;-45
2021/06/25 01:22:59;;;;;;;15.93;14.32;;;11.40;99.90;;;;;;5024965;28;20088;-45
2021/06/25 01:25:36;;;;;;;18.70;15.02;;;11.30;99.90;;;;;;5026201;28;20072;-47
2021/06/25 01:28:09;;;;;;;15.38;13.77;;;11.30;99.90;;;;;;5024160;28;20056;-46
2021/06/25 01:30:41;;;;;;;17.50;15.80;;;11.30;99.90;;;;;;5012314;28;20046;-45
2021/06/25 01:33:14;;;;;;;15.70;14.18;;;11.20;99.90;;;;;;5021683;28;20038;-44
2021/06/25 01:35:56;;;;;;;16.50;14.90;;;11.20;99.90;;;;;;5025573;28;20046;-47
2021/06/25 01:38:30;;;;;;;16.93;15.30;;;11.20;99.90;;;;;;5026703;28;20049;-46
2021/06/25 01:41:04;;;;;;;14.68;13.38;;;11.20;99.90;;;;;;5025711;28;20319;-45
2021/06/25 01:43:37;;;;;;;14.20;12.77;;;11.10;99.90;;;;;;5011059;28;20133;-45
2021/06/25 01:46:07;;;;;;;17.15;15.18;;;11.10;99.90;;;;;;5007197;28;20042;-45
2021/06/25 01:48:37;;;;;;;16.50;14.90;;;11.00;99.90;;;;;;5006140;28;20077;-47
2021/06/25 01:51:06;;;;;;;14.77;13.27;;;11.00;99.90;;;;;;5005282;28;20145;-45
2021/06/25 01:53:32;;;;;;;14.20;12.80;;;11.00;99.90;;;;;;5026176;28;20045;-46
2021/06/25 01:56:02;;;;;;;14.07;12.77;;;10.90;99.90;;;;;;5026166;28;20466;-45
2021/06/25 01:58:34;;;;;;;15.35;13.95;;;10.90;99.90;;;;;;5012753;28;20405;-47
2021/06/25 02:01:15;;;;;;;13.95;12.70;;;10.90;99.90;;;;;;5013004;28;20525;-45
2021/06/25 02:03:46;;;;;;;14.45;13.10;;;10.90;99.90;;;;;;5013752;28;20100;-45
2021/06/25 02:06:15;;;;;;;13.75;12.40;;;10.90;99.90;;;;;;5008912;28;20129;-45
2021/06/25 02:08:44;;;;;;;15.02;13.63;;;10.90;99.90;;;;;;5009928;28;20097;-45
2021/06/25 02:11:12;;;;;;;14.40;13.02;;;10.80;99.90;;;;;;5019355;28;20073;-46
2021/06/25 02:13:41;;;;;;;13.32;11.93;;;10.80;99.90;;;;;;5028045;28;20038;-45
2021/06/25 02:16:09;;;;;;;15.63;14.10;;;10.80;99.90;;;;;;5018762;28;20399;-46
2021/06/25 02:18:41;;;;;;;15.63;13.75;;;10.80;99.90;;;;;;5009516;28;20057;-45
2021/06/25 02:21:12;;;;;;;;;;;10.70;99.90;;;;;;5016308;28;20042;-46
2021/06/25 02:23:39;;;;;;;16.02;14.43;;;10.70;99.90;;;;;;5010111;28;20699;-48
2021/06/25 02:26:08;;;;;;;17.95;16.35;;;10.70;99.90;;;;;;5019630;28;20528;-46
2021/06/25 02:28:37;;;;;;;17.77;16.17;;;10.60;99.90;;;;;;5027337;28;20481;-46
2021/06/25 02:31:04;;;;;;;16.70;15.07;;;10.60;99.90;;;;;;5011302;28;20054;-47
2021/06/25 02:33:32;;;;;;;16.00;14.57;;;10.60;99.90;;;;;;5011320;28;20037;-46
2021/06/25 02:36:04;;;;;;;14.60;13.20;;;10.50;99.90;;;;;;5008950;28;20049;-46
2021/06/25 02:38:35;;;;;;;11.38;10.27;;;10.40;99.90;;;;;;5025381;28;20050;-47
2021/06/25 02:41:07;;;;;;;10.43;9.38;;;10.40;99.90;;;;;;5008269;28;20115;-46
2021/06/25 02:43:33;;;;;;;11.27;9.90;;;10.40;99.90;;;;;;5009367;28;20402;-45
2021/06/25 02:46:04;;;;;;;25.00;9.43;;;10.30;99.90;;;;;;5023417;28;20060;-45
2021/06/25 02:48:33;;;;;;;8.98;7.75;;;10.30;99.90;;;;;;5028984;28;20049;-46
2021/06/25 02:51:04;;;;;;;17.15;8.40;;;10.20;99.90;;;;;;5029679;28;20042;-48
2021/06/25 02:53:31;;;;;;;29.20;10.80;;;10.10;99.90;;;;;;5027525;28;20056;-46
2021/06/25 02:55:59;;;;;;;27.65;10.25;;;10.20;99.90;;;;;;5018519;28;20368;-48
2021/06/25 02:58:28;;;;;;;40.88;11.98;;;10.10;99.90;;;;;;5009154;28;20063;-47
2021/06/25 03:00:57;;;;;;;25.63;10.02;;;10.10;99.90;;;;;;5023717;28;20465;-45
2021/06/25 03:03:26;;;;;;;;;;;10.10;99.90;;;;;;5028479;28;20485;-49
2021/06/25 03:05:58;;;;;;;53.38;11.73;;;10.10;99.90;;;;;;5038854;28;19929;-48
2021/06/25 03:08:31;;;;;;;59.80;12.93;;;10.00;99.90;;;;;;5008298;28;20137;-45
2021/06/25 03:11:02;;;;;;;34.95;12.68;;;10.10;99.90;;;;;;5018311;28;20049;-46
2021/06/25 03:13:32;;;;;;;77.80;16.02;;;10.00;99.90;;;;;;5020866;28;20064;-45
2021/06/25 03:16:03;;;;;;;71.80;16.87;;;10.00;99.90;;;;;;5022389;28;20049;-47
2021/06/25 03:18:33;;;;;;;166.07;21.45;;;10.00;99.90;;;;;;5026835;28;20323;-47
2021/06/25 03:21:04;;;;;;;177.13;23.48;;;9.90;99.90;;;;;;5027801;28;20052;-46
2021/06/25 03:23:35;;;;;;;72.88;17.92;;;9.80;99.90;;;;;;5026893;28;20045;-49
2021/06/25 03:26:04;;;;;;;114.00;18.10;;;9.80;99.90;;;;;;5032583;28;20034;-45
2021/06/25 03:28:35;;;;;;;59.40;14.57;;;9.80;99.90;;;;;;5022824;28;20050;-46
2021/06/25 03:31:04;;;;;;;81.15;16.70;;;9.80;99.90;;;;;;5016102;28;20057;-46
2021/06/25 03:33:40;;;;;;;97.43;17.20;;;9.70;99.90;;;;;;5013781;28;20107;-46
2021/06/25 03:36:11;;;;;;;186.27;22.30;;;9.70;99.90;;;;;;5027188;28;20099;-46
2021/06/25 03:38:40;;;;;;;123.53;19.50;;;9.70;99.90;;;;;;5014431;28;20549;-45
2021/06/25 03:41:09;;;;;;;114.45;18.30;;;9.70;99.90;;;;;;5008879;28;20056;-47
2021/06/25 03:43:36;;;;;;;166.43;21.33;;;9.70;99.90;;;;;;5008388;28;20174;-45
2021/06/25 03:46:05;;;;;;;131.10;17.95;;;9.70;99.90;;;;;;5014718;28;20127;-47
2021/06/25 03:48:33;;;;;;;79.68;16.73;;;9.70;99.90;;;;;;5007495;28;20101;-46
2021/06/25 03:51:00;;;;;;;58.17;15.77;;;9.60;99.90;;;;;;5009394;28;20050;-47
2021/06/25 03:53:28;;;;;;;58.95;15.48;;;9.70;99.90;;;;;;5006848;28;20060;-46
2021/06/25 03:56:13;;;;;;;37.25;13.68;;;9.70;99.90;;;;;;5017065;28;20096;-47
2021/06/25 03:58:41;;;;;;;53.45;13.70;;;9.70;99.90;;;;;;5023141;28;20049;-47
2021/06/25 04:01:10;;;;;;;60.78;13.20;;;9.60;99.90;;;;;;5007999;28;20074;-46
2021/06/25 04:03:39;;;;;;;66.97;12.68;;;9.60;99.90;;;;;;5007774;28;20050;-47
2021/06/25 04:06:06;;;;;;;75.38;14.57;;;9.70;99.90;;;;;;5013494;28;20064;-51
2021/06/25 04:08:36;;;;;;;83.75;13.27;;;9.70;99.90;;;;;;5027143;28;20055;-47
2021/06/25 04:11:05;;;;;;;161.10;18.25;;;9.80;99.90;;;;;;5022491;28;20139;-49
2021/06/25 04:13:36;;;;;;;130.50;17.98;;;9.80;99.90;;;;;;5007276;28;20506;-46
2021/06/25 04:16:05;;;;;;;171.82;19.60;;;9.80;99.90;;;;;;5020114;28;20559;-47
2021/06/25 04:18:34;;;;;;;204.05;20.23;;;9.80;99.90;;;;;;5022027;28;20200;-47
2021/06/25 04:21:01;;;;;;;118.97;16.95;;;9.80;99.90;;;;;;5006901;28;20045;-43
2021/06/25 04:23:30;;;;;;;100.47;16.13;;;9.90;99.90;;;;;;5014651;28;20513;-48
2021/06/25 04:26:02;;;;;;;118.40;16.58;;;9.90;99.90;;;;;;5030542;28;20127;-43
2021/06/25 04:28:40;;;;;;;120.10;18.42;;;10.00;99.90;;;;;;5025472;28;20046;-44
2021/06/25 04:31:06;;;;;;;92.47;16.63;;;10.10;99.90;;;;;;5025441;28;20049;-46
2021/06/25 04:33:36;;;;;;;82.07;15.93;;;10.20;99.90;;;;;;5023653;28;20045;-45
2021/06/25 04:36:05;;;;;;;72.50;14.18;;;10.20;99.90;;;;;;5026523;28;20052;-45
2021/06/25 04:38:42;;;;;;;108.45;15.10;;;10.40;99.90;;;;;;5026214;28;20077;-47
2021/06/25 04:41:13;;;;;;;118.60;15.45;;;10.30;99.90;;;;;;5026087;28;20053;-45
2021/06/25 04:43:41;;;;;;;176.45;20.70;;;10.40;99.90;;;;;;5023190;28;20042;-46
2021/06/25 04:46:09;;;;;;;97.43;16.20;;;10.40;99.90;;;;;;5027380;28;20041;-46
2021/06/25 04:48:38;;;;;;;131.23;18.92;;;10.50;99.90;;;;;;5046570;28;20102;-46
2021/06/25 04:51:06;;;;;;;84.50;16.05;;;10.50;99.90;;;;;;5045486;28;20056;-46
2021/06/25 04:53:35;;;;;;;103.28;19.20;;;10.60;99.90;;;;;;5035712;28;20053;-46
2021/06/25 04:56:01;;;;;;;63.42;16.40;;;10.70;99.90;;;;;;5021781;28;20057;-48
2021/06/25 04:58:30;;;;;;;36.13;15.38;;;10.80;99.90;;;;;;5024797;28;20050;-48
2021/06/25 05:01:02;;;;;;;32.10;15.38;;;10.80;99.90;;;;;;5019419;28;20072;-48
2021/06/25 05:03:33;;;;;;;55.05;32.25;;;11.20;99.90;;;;;;5019114;28;20052;-49
2021/06/25 05:05:59;;;;;;;49.97;34.30;;;11.30;99.90;;;;;;5027688;28;20180;-49
2021/06/25 05:08:25;;;;;;;35.42;24.83;;;11.50;99.90;;;;;;5031963;28;20052;-49
2021/06/25 05:10:52;;;;;;;30.77;18.63;;;11.50;99.90;;;;;;5027311;28;20042;-49
2021/06/25 05:13:21;;;;;;;21.30;15.13;;;11.80;99.90;;;;;;5025254;28;20045;-48
2021/06/25 05:15:53;;;;;;;20.00;17.65;;;12.00;99.90;;;;;;5017588;28;20069;-48
2021/06/25 05:18:24;;;;;;;16.88;13.95;;;12.30;99.90;;;;;;5006180;28;21056;-47
2021/06/25 05:20:52;;;;;;;15.90;14.20;;;12.60;99.90;;;;;;5005964;28;20639;-48
2021/06/25 05:23:24;;;;;;;15.52;13.93;;;12.80;99.90;;;;;;5008511;28;20045;-46
2021/06/25 05:25:50;;;;;;;24.58;13.10;;;13.00;99.90;;;;;;5005564;28;20054;-48
2021/06/25 05:28:16;;;;;;;15.38;13.85;;;13.30;99.90;;;;;;5045838;28;20068;-50
2021/06/25 05:30:46;;;;;;;30.58;27.60;;;13.60;99.90;;;;;;5023815;28;20560;-46
2021/06/25 05:33:12;;;;;;;17.88;16.23;;;13.80;99.90;;;;;;5012061;28;20122;-47
2021/06/25 05:35:40;;;;;;;27.63;24.92;;;14.20;99.90;;;;;;5023576;28;20052;-46
2021/06/25 05:38:14;;;;;;;34.63;31.15;;;14.50;99.90;;;;;;5026018;28;20045;-49
2021/06/25 05:40:41;;;;;;;;;;;14.60;99.90;;;;;;5026529;28;20050;-46
2021/06/25 05:43:13;;;;;;;29.23;26.40;;;14.80;99.90;;;;;;5028604;28;20600;-46
2021/06/25 05:45:42;;;;;;;24.95;22.63;;;15.10;99.90;;;;;;5025521;28;20033;-49
2021/06/25 05:48:09;;;;;;;18.48;16.88;;;15.30;99.90;;;;;;5025680;28;20082;-45
2021/06/25 05:50:37;;;;;;;17.30;15.50;;;15.50;99.90;;;;;;5019818;28;20474;-43
2021/06/25 05:53:06;;;;;;;18.77;17.20;;;15.70;99.90;;;;;;5025533;28;20076;-44
2021/06/25 05:55:37;;;;;;;16.70;15.10;;;15.90;99.90;;;;;;5021157;28;20386;-44
2021/06/25 05:58:06;;;;;;;19.77;17.98;;;16.20;99.90;;;;;;5009052;28;20054;-46
2021/06/25 06:00:35;;;;;;;36.17;32.45;;;16.50;99.90;;;;;;5019337;28;20072;-46
2021/06/25 06:03:01;;;;;;;19.35;17.58;;;16.80;99.90;;;;;;5020961;28;20072;-43
2021/06/25 06:05:33;;;;;;;18.48;16.88;;;17.00;99.90;;;;;;5020860;28;20053;-44
2021/06/25 06:07:59;;;;;;;18.17;16.17;;;17.20;99.90;;;;;;5024828;28;20057;-44
2021/06/25 06:10:33;;;;;;;18.23;16.38;;;17.50;99.90;;;;;;5006607;28;20127;-43
2021/06/25 06:13:02;;;;;;;16.75;15.35;;;17.60;99.90;;;;;;5022637;28;20066;-44
2021/06/25 06:15:29;;;;;;;16.45;15.05;;;17.80;99.90;;;;;;5023537;28;20037;-45
2021/06/25 06:18:00;;;;;;;16.08;14.65;;;18.10;99.90;;;;;;5025343;28;20378;-45
2021/06/25 06:20:28;;;;;;;15.65;14.25;;;18.10;99.90;;;;;;5016237;28;20041;-47
2021/06/25 06:31:23;;;;;;;18.30;16.73;;;18.20;99.90;;;;;;5014359;28;20638;-47
2021/06/25 06:34:00;;;;;;;18.45;16.85;;;18.10;99.90;;;;;;5021117;28;20168;-46
2021/06/25 06:36:41;;;;;;;26.27;23.67;;;17.90;99.90;;;;;;5026538;28;20041;-48
2021/06/25 06:39:10;;;;;;;19.77;17.88;;;17.80;99.90;;;;;;5026414;28;20041;-48
2021/06/25 06:41:37;;;;;;;38.03;34.42;;;17.60;99.90;;;;;;5024387;28;20042;-50
2021/06/25 06:44:07;;;;;;;21.13;19.23;;;17.50;99.90;;;;;;5024603;28;20409;-50
2021/06/25 06:46:37;;;;;;;19.83;18.15;;;17.50;99.90;;;;;;5017114;28;20052;-50
2021/06/25 06:49:04;;;;;;;19.75;17.88;;;17.50;99.90;;;;;;5021231;28;20050;-46
2021/06/25 06:51:30;;;;;;;31.15;28.05;;;17.50;99.90;;;;;;5023123;28;20477;-47
2021/06/25 06:53:57;;;;;;;26.80;24.45;;;17.90;99.90;;;;;;5024071;28;20132;-47
2021/06/25 06:56:24;;;;;;;19.85;18.05;;;18.10;99.90;;;;;;5026640;28;20049;-47
2021/06/25 06:58:52;;;;;;;24.70;22.45;;;18.20;99.90;;;;;;5026474;28;20049;-46
2021/06/25 07:01:23;;;;;;;19.40;17.63;;;18.20;99.90;;;;;;5025924;28;20488;-49
2021/06/25 07:03:51;;;;;;;20.08;18.30;;;18.20;99.90;;;;;;5027301;28;20084;-46
2021/06/25 07:06:18;;;;;;;20.40;18.35;;;18.10;99.90;;;;;;5025200;28;20042;-48
2021/06/25 07:08:44;;;;;;;20.33;18.42;;;18.10;99.90;;;;;;5025981;28;20085;-48
2021/06/25 07:11:11;;;;;;;19.92;18.02;;;18.00;99.00;;;;;;5020049;28;20050;-47
2021/06/25 07:13:37;;;;;;;19.23;17.20;;;18.20;98.00;;;;;;5030149;28;20383;-49
2021/06/25 07:16:06;;;;;;;18.83;17.00;;;18.60;99.30;;;;;;5025225;28;20091;-46
2021/06/25 07:18:33;;;;;;;17.88;16.17;;;19.10;99.30;;;;;;5020027;28;20045;-49
2021/06/25 07:21:00;;;;;;;16.67;15.20;;;19.20;98.20;;;;;;5027657;28;20448;-47
2021/06/25 07:23:26;;;;;;;34.55;31.10;;;19.40;94.70;;;;;;5029405;28;20083;-48
2021/06/25 07:25:55;;;;;;;17.58;15.90;;;19.50;95.30;;;;;;5021705;28;20041;-49
2021/06/25 07:28:26;;;;;;;15.05;13.70;;;19.20;92.10;;;;;;5012394;28;20042;-48
2021/06/25 07:30:53;;;;;;;16.67;15.07;;;19.40;89.00;;;;;;5020789;28;20045;-49
2021/06/25 07:33:19;;;;;;;12.40;11.20;;;19.40;90.30;;;;;;5024621;28;20072;-51
2021/06/25 07:35:45;;;;;;;10.27;9.27;;;19.20;71.20;;;;;;5027501;28;20049;-49
2021/06/25 07:38:14;;;;;;;11.95;9.70;;;19.10;66.40;;;;;;5028317;28;20037;-51
2021/06/25 07:40:44;;;;;;;9.88;8.88;;;19.10;75.60;;;;;;5028200;28;20088;-52
2021/06/25 07:43:10;;;;;;;53.38;47.65;;;19.20;69.90;;;;;;5028059;28;20041;-49
2021/06/25 07:45:36;;;;;;;6.53;5.85;;;19.50;63.50;;;;;;5032041;28;20147;-49
2021/06/25 07:48:03;;;;;;;9.65;6.88;;;19.80;64.20;;;;;;5026320;28;20223;-51
2021/06/25 07:50:29;;;;;;;6.60;6.00;;;19.90;63.70;;;;;;5024133;28;20056;-49
2021/06/25 07:52:55;;;;;;;7.70;5.68;;;19.80;56.20;;;;;;5016704;28;20422;-50
2021/06/25 07:55:24;;;;;;;5.78;4.53;;;19.40;58.40;;;;;;5026526;28;20786;-48
2021/06/25 07:57:50;;;;;;;7.20;4.78;;;19.30;60.80;;;;;;5025981;28;20049;-51
2021/06/25 08:00:16;;;;;;;5.25;4.18;;;19.30;61.40;;;;;;5025774;28;20386;-48
2021/06/25 08:02:44;;;;;;;5.63;4.10;;;19.30;59.40;;;;;;5025730;28;20052;-51
2021/06/25 08:05:10;;;;;;;6.00;5.20;;;19.60;60.90;;;;;;5027518;28;20049;-52
2021/06/25 08:07:37;;;;;;;6.32;4.97;;;19.70;59.50;;;;;;5027422;28;20034;-51
2021/06/25 08:10:07;;;;;;;5.97;4.75;;;19.90;57.80;;;;;;5026410;28;20049;-50
2021/06/25 08:12:35;;;;;;;5.55;4.30;;;20.10;56.00;;;;;;5021882;28;20429;-49
2021/06/25 08:15:02;;;;;;;4.85;4.10;;;20.10;53.60;;;;;;5015163;28;20052;-50
2021/06/25 08:17:31;;;;;;;4.10;3.58;;;20.30;51.10;;;;;;5019487;28;20056;-48
2021/06/25 08:19:58;;;;;;;4.55;3.60;;;20.20;48.40;;;;;;5027465;28;20038;-49
2021/06/25 08:22:24;;;;;;;4.57;3.58;;;20.40;52.10;;;;;;5030171;28;20068;-47
2021/06/25 08:24:50;;;;;;;6.20;4.00;;;20.70;52.50;;;;;;5031458;28;20131;-47
2021/06/25 08:27:16;;;;;;;4.30;2.70;;;20.40;48.80;;;;;;5026637;28;20049;-48
2021/06/25 08:29:43;;;;;;;5.18;2.20;;;20.50;51.50;;;;;;5027450;28;20041;-49
2021/06/25 08:32:09;;;;;;;4.18;2.30;;;20.30;47.30;;;;;;5025792;28;20056;-49
2021/06/25 08:34:35;;;;;;;3.40;2.50;;;20.30;44.20;;;;;;5027668;28;20049;-48
2021/06/25 08:37:04;;;;;;;6.40;3.63;;;20.40;47.70;;;;;;5025453;28;20042;-49
2021/06/25 08:39:30;;;;;;;6.00;3.60;;;20.60;47.80;;;;;;5026960;28;20056;-46
2021/06/25 08:42:02;;;;;;;6.07;3.75;;;20.70;49.40;;;;;;5025599;28;20049;-48
2021/06/25 08:44:35;;;;;;;4.70;3.33;;;20.70;48.70;;;;;;5026462;28;20203;-46
2021/06/25 08:47:08;;;;;;;4.80;3.63;;;20.90;50.10;;;;;;5027336;28;20037;-46
2021/06/25 08:49:42;;;;;;;5.45;4.47;;;21.00;52.00;;;;;;5026849;28;20037;-47
2021/06/25 08:52:09;;;;;;;5.20;4.25;;;21.00;50.20;;;;;;5019920;28;20162;-46
2021/06/25 08:54:38;;;;;;;5.70;4.93;;;21.20;52.50;;;;;;5026700;28;20049;-47
2021/06/25 08:57:07;;;;;;;5.47;4.70;;;20.90;51.70;;;;;;5021308;28;20047;-51
2021/06/25 08:59:34;;;;;;;8.52;5.40;;;20.90;53.10;;;;;;5027229;28;20056;-48
2021/06/25 09:02:02;;;;;;;8.38;5.47;;;21.00;53.10;;;;;;5024879;28;20049;-50
2021/06/25 09:04:38;;;;;;;6.30;5.22;;;21.10;52.80;;;;;;5014163;28;20096;-48
2021/06/25 09:07:07;;;;;;;60.08;54.40;;;21.30;53.20;;;;;;5011803;28;20045;-47
2021/06/25 09:09:47;;;;;;;10.05;7.60;;;21.90;54.50;;;;;;5027755;28;20049;-48
2021/06/25 09:12:23;;;;;;;11.50;10.35;;;21.90;50.10;;;;;;5026073;28;20049;-47
2021/06/25 09:14:59;;;;;;;7.22;6.15;;;21.90;48.90;;;;;;5012451;28;20052;-48
2021/06/25 09:17:26;;;;;;;6.95;4.10;;;21.70;51.70;;;;;;5007196;28;20805;-48
2021/06/25 09:19:56;;;;;;;7.57;4.65;;;21.80;52.10;;;;;;5019022;28;20474;-48
2021/06/25 09:22:24;;;;;;;4.35;3.40;;;21.80;50.70;;;;;;5014820;28;20646;-48
2021/06/25 09:25:08;;;;;;;6.93;5.20;;;21.60;49.70;;;;;;5012723;28;20096;-49
2021/06/25 09:27:36;;;;;;;6.55;5.95;;;21.20;48.00;;;;;;5005870;28;20045;-49
2021/06/25 09:30:13;;;;;;;7.07;6.38;;;21.40;51.80;;;;;;5021776;28;20846;-50
2021/06/25 09:32:39;;;;;;;7.07;5.85;;;21.40;50.90;;;;;;5018821;28;20056;-49
2021/06/25 09:35:15;;;;;;;6.88;5.43;;;21.00;51.40;;;;;;5024973;28;20603;-50
2021/06/25 09:37:43;;;;;;;7.05;6.25;;;21.20;53.90;;;;;;5023864;28;20500;-46
2021/06/25 09:40:13;;;;;;;10.00;8.45;;;21.00;53.80;;;;;;5024305;28;20076;-48
2021/06/25 09:42:44;;;;;;;21.90;19.67;;;20.90;54.50;;;;;;5009438;28;20124;-47
2021/06/25 09:45:19;;;;;;;;;;;21.00;55.00;;;;;;5022939;28;20057;-46
2021/06/25 09:47:54;;;;;;;15.43;13.95;;;21.00;54.70;;;;;;5026630;28;19922;-49
2021/06/25 09:50:27;;;;;;;11.80;10.60;;;21.40;55.10;;;;;;5022635;28;20053;-48
2021/06/25 09:53:04;;;;;;;11.05;10.05;;;21.40;55.90;;;;;;5027208;28;20049;-49
2021/06/25 09:55:49;;;;;;;15.45;11.73;;;21.60;56.10;;;;;;5026418;28;20065;-50
2021/06/25 09:58:36;;;;;;;18.67;16.83;;;21.70;56.80;;;;;;5025757;28;20038;-48
2021/06/25 10:01:24;;;;;;;11.73;10.63;;;21.70;55.40;;;;;;5007174;28;20041;-50
2021/06/25 10:03:58;;;;;;;13.00;11.52;;;21.80;58.50;;;;;;5009858;28;20088;-50
2021/06/25 10:06:32;;;;;;;12.27;10.98;;;22.00;55.70;;;;;;5023019;28;20049;-46
2021/06/25 10:09:00;;;;;;;10.90;9.52;;;22.10;56.60;;;;;;5026104;28;20052;-51
2021/06/25 10:11:32;;;;;;;10.57;9.48;;;22.10;57.10;;;;;;5033387;28;20052;-46
2021/06/25 10:13:59;;;;;;;;;;;22.20;57.80;;;;;;5031370;28;20559;-49
2021/06/25 10:16:26;;;;;;;10.25;9.25;;;22.10;61.30;;;;;;5026301;28;19921;-50
2021/06/25 10:18:55;;;;;;;11.55;10.43;;;22.10;58.80;;;;;;5027455;28;20060;-48
2021/06/25 10:21:28;;;;;;;13.45;11.18;;;22.40;58.70;;;;;;5036685;28;20464;-50
2021/06/25 10:23:59;;;;;;;13.43;12.13;;;22.50;60.40;;;;;;5052122;28;20044;-50
2021/06/25 10:26:26;;;;;;;10.90;9.80;;;22.40;60.40;;;;;;5029795;28;20809;-48
2021/06/25 10:28:55;;;;;;;12.85;11.55;;;22.40;60.40;;;;;;5028631;28;20084;-48
2021/06/25 10:31:24;;;;;;;15.77;14.23;;;22.50;58.90;;;;;;5024618;28;20497;-48
2021/06/25 10:33:52;;;;;;;14.40;10.98;;;22.70;58.00;;;;;;5017856;28;20072;-51
2021/06/25 10:36:22;;;;;;;15.02;12.57;;;22.70;58.00;;;;;;5024394;28;20046;-51
2021/06/25 10:38:50;;;;;;;19.67;17.63;;;22.80;60.40;;;;;;5014215;28;20541;-48
2021/06/25 10:41:17;;;;;;;20.38;18.20;;;22.80;58.50;;;;;;5010005;28;20033;-51
2021/06/25 10:43:50;;;;;;;12.85;11.07;;;23.10;57.40;;;;;;5024787;28;20037;-49
2021/06/25 10:46:34;;;;;;;14.60;12.60;;;23.30;58.30;;;;;;5018689;28;20140;-47
2021/06/25 10:49:01;;;;;;;16.30;14.63;;;23.30;58.00;;;;;;5014421;28;20128;-50
2021/06/25 10:51:35;;;;;;;14.90;13.35;;;23.40;59.70;;;;;;5029999;28;20136;-49
2021/06/25 10:54:26;;;;;;;13.70;11.90;;;23.40;57.70;;;;;;5025359;28;20133;-51
2021/06/25 10:56:52;;;;;;;12.32;10.88;;;23.70;58.20;;;;;;5030489;28;20046;-52
2021/06/25 11:01:59;;;;;;;11.98;10.70;;;23.70;57.90;;;;;;5024636;28;20049;-49
2021/06/25 11:04:36;;;;;;;13.55;12.15;;;23.90;58.60;;;;;;5019984;28;20121;-48
2021/06/25 11:07:15;;;;;;;17.58;15.70;;;23.90;56.20;;;;;;5019587;28;20052;-49
2021/06/25 11:10:00;;;;;;;14.05;12.02;;;24.30;55.60;;;;;;5023047;28;20049;-51
2021/06/25 11:12:31;;;;;;;14.90;12.07;;;24.30;56.20;;;;;;5018884;28;20049;-51
2021/06/25 11:15:08;;;;;;;14.57;13.20;;;24.10;58.20;;;;;;5019360;28;20423;-51
2021/06/25 11:17:53;;;;;;;14.18;12.75;;;24.20;58.70;;;;;;5019964;28;20046;-51
2021/06/25 11:20:35;;;;;;;14.35;12.95;;;24.30;57.50;;;;;;5025563;28;20042;-52
2021/06/25 11:23:17;;;;;;;14.80;13.30;;;24.30;56.10;;;;;;5011957;28;20045;-52
2021/06/25 11:25:57;;;;;;;15.70;14.20;;;24.00;55.10;;;;;;5033037;28;20049;-53
2021/06/25 11:28:44;;;;;;;14.82;13.40;;;24.00;58.20;;;;;;5029249;28;20080;-53
2021/06/25 11:31:13;;;;;;;13.93;12.63;;;24.30;59.40;;;;;;5028646;28;20045;-49
2021/06/25 11:33:42;;;;;;;15.32;13.75;;;24.30;59.30;;;;;;5028260;28;20509;-49
2021/06/25 11:36:14;;;;;;;16.23;14.63;;;24.00;58.30;;;;;;5027363;28;20515;-47
2021/06/25 11:39:02;;;;;;;15.43;13.85;;;23.80;58.30;;;;;;5028976;28;20037;-51
2021/06/25 11:41:30;;;;;;;16.33;14.65;;;24.00;59.90;;;;;;5028680;28;20056;-49
2021/06/25 11:44:00;;;;;;;17.65;14.05;;;23.70;60.10;;;;;;5029184;28;20053;-50
2021/06/25 11:46:28;;;;;;;17.10;15.35;;;23.80;60.90;;;;;;5034141;28;20042;-51
2021/06/25 11:49:04;;;;;;;15.93;14.32;;;23.70;61.80;;;;;;5035188;28;20049;-50
2021/06/25 11:51:41;;;;;;;17.77;15.75;;;23.60;63.40;;;;;;5024533;28;20056;-51
2021/06/25 11:54:12;;;;;;;18.23;16.45;;;23.30;62.70;;;;;;5031522;28;20466;-50
2021/06/25 11:56:43;;;;;;;18.77;16.80;;;23.10;64.00;;;;;;5028587;28;20046;-47
2021/06/25 11:59:10;;;;;;;19.10;17.10;;;22.80;66.60;;;;;;5028871;28;20072;-51
2021/06/25 12:01:58;;;;;;;19.42;17.38;;;22.60;66.40;;;;;;5027691;28;20504;-50
2021/06/25 12:04:39;;;;;;;20.33;18.27;;;22.70;70.40;;;;;;5013028;28;20041;-47
2021/06/25 12:07:08;;;;;;;20.55;17.58;;;22.70;70.10;;;;;;5025466;28;20049;-53
2021/06/25 12:09:39;;;;;;;18.95;17.25;;;22.70;69.80;;;;;;5027910;28;20161;-51
2021/06/25 12:12:26;;;;;;;17.60;15.95;;;23.00;69.00;;;;;;5023581;28;20052;-47
2021/06/25 12:15:20;;;;;;;19.63;17.73;;;22.90;69.00;;;;;;5014511;28;20116;-47
2021/06/25 12:17:52;;;;;;;18.48;16.45;;;23.30;69.10;;;;;;5020751;28;20067;-48
2021/06/25 12:20:27;;;;;;;20.10;18.13;;;23.80;70.10;;;;;;5029131;28;20045;-52
2021/06/25 12:23:06;;;;;;;27.83;24.20;;;24.00;71.00;;;;;;5019868;28;20140;-52
2021/06/25 12:25:50;;;;;;;29.73;23.50;;;24.00;70.00;;;;;;5011487;28;20684;-48
2021/06/25 12:28:22;;;;;;;28.02;25.13;;;24.00;70.60;;;;;;5014158;28;20052;-49
2021/06/25 12:30:55;;;;;;;24.60;21.88;;;23.90;71.30;;;;;;5027185;28;20511;-47
2021/06/25 12:33:24;;;;;;;23.33;21.17;;;24.20;72.70;;;;;;5023847;28;20070;-52
2021/06/25 12:35:52;;;;;;;23.08;20.88;;;24.40;70.90;;;;;;5026882;28;20464;-47
2021/06/25 12:38:23;;;;;;;24.70;22.48;;;24.00;70.80;;;;;;5025973;28;20473;-47
2021/06/25 12:40:51;;;;;;;23.33;21.15;;;23.90;72.90;;;;;;5023762;28;20145;-46
2021/06/25 12:43:36;;;;;;;25.00;22.50;;;23.60;71.60;;;;;;5006614;28;20050;-49
2021/06/25 12:46:06;;;;;;;24.05;21.67;;;23.50;73.20;;;;;;5007357;28;20038;-48
2021/06/25 12:48:36;;;;;;;26.13;23.50;;;23.30;73.40;;;;;;5006536;28;20219;-50
2021/06/25 12:51:06;;;;;;;25.15;22.65;;;23.00;73.20;;;;;;5006447;28;20141;-48
2021/06/25 12:53:35;;;;;;;26.55;23.42;;;23.10;73.30;;;;;;5007993;28;20065;-45
2021/06/25 12:56:20;;;;;;;27.05;24.45;;;23.30;74.00;;;;;;5006996;28;20049;-48
2021/06/25 12:59:00;;;;;;;27.38;24.73;;;23.40;78.60;;;;;;5006784;28;20466;-46
2021/06/25 13:01:56;;;;;;;26.23;23.63;;;23.30;79.50;;;;;;5023675;28;20115;-48